sensor_id;sensor_type;location;lat;lon;timestamp;P1;durP1;ratioP1;P2;durP2;ratioP2
11004;SDS011;5555;59.622;16.556;2023-06-24T00:00:59;1.93;;;0.53;;
11004;SDS011;5555;59.622;16.556;2023-06-24T00:03:25;2.10;;;0.40;;
11004;SDS011;5555;59.622;16.556;2023-06-24T00:05:51;0.70;;;0.40;;
11004;SDS011;5555;59.622;16.556;2023-06-24T00:08:18;0.60;;;0.40;;
11004;SDS011;5555;59.622;16.556;2023-06-24T00:10:47;0.40;;;0.40;;
11004;SDS011;5555;59.622;16.556;2023-06-24T00:13:13;0.70;;;0.50;;
11004;SDS011;5555;59.622;16.556;2023-06-24T00:15:42;0.90;;;0.40;;
11004;SDS011;5555;59.622;16.556;2023-06-24T00:18:11;2.10;;;0.67;;
11004;SDS011;5555;59.622;16.556;2023-06-24T00:20:38;0.90;;;0.40;;
11004;SDS011;5555;59.622;16.556;2023-06-24T00:23:03;1.63;;;0.37;;
11004;SDS011;5555;59.622;16.556;2023-06-24T00:25:31;1.33;;;0.40;;
11004;SDS011;5555;59.622;16.556;2023-06-24T00:27:57;0.60;;;0.40;;
11004;SDS011;5555;59.622;16.556;2023-06-24T00:30:23;1.13;;;0.50;;
11004;SDS011;5555;59.622;16.556;2023-06-24T00:32:48;0.57;;;0.50;;
11004;SDS011;5555;59.622;16.556;2023-06-24T00:35:14;0.37;;;0.37;;
11004;SDS011;5555;59.622;16.556;2023-06-24T00:37:40;0.73;;;0.40;;
11004;SDS011;5555;59.622;16.556;2023-06-24T00:40:10;1.43;;;0.40;;
11004;SDS011;5555;59.622;16.556;2023-06-24T00:42:36;1.73;;;0.57;;
11004;SDS011;5555;59.622;16.556;2023-06-24T00:45:03;1.00;;;0.57;;
11004;SDS011;5555;59.622;16.556;2023-06-24T00:47:30;0.87;;;0.40;;
11004;SDS011;5555;59.622;16.556;2023-06-24T00:49:56;1.13;;;0.57;;
11004;SDS011;5555;59.622;16.556;2023-06-24T00:52:22;1.17;;;0.57;;
11004;SDS011;5555;59.622;16.556;2023-06-24T00:54:48;0.37;;;0.30;;
11004;SDS011;5555;59.622;16.556;2023-06-24T00:57:14;1.17;;;0.40;;
11004;SDS011;5555;59.622;16.556;2023-06-24T00:59:42;1.37;;;0.47;;
11004;SDS011;5555;59.622;16.556;2023-06-24T01:02:10;0.70;;;0.63;;
11004;SDS011;5555;59.622;16.556;2023-06-24T01:04:37;0.70;;;0.60;;
11004;SDS011;5555;59.622;16.556;2023-06-24T01:07:03;0.60;;;0.60;;
11004;SDS011;5555;59.622;16.556;2023-06-24T01:09:30;1.07;;;0.70;;
11004;SDS011;5555;59.622;16.556;2023-06-24T01:11:56;0.60;;;0.60;;
11004;SDS011;5555;59.622;16.556;2023-06-24T01:14:21;1.03;;;0.80;;
11004;SDS011;5555;59.622;16.556;2023-06-24T01:22:19;0.80;;;0.80;;
11004;SDS011;5555;59.622;16.556;2023-06-24T01:30:42;0.70;;;0.60;;
11004;SDS011;5555;59.622;16.556;2023-06-24T01:33:46;0.77;;;0.70;;
11004;SDS011;5555;59.622;16.556;2023-06-24T01:36:15;1.60;;;0.70;;
11004;SDS011;5555;59.622;16.556;2023-06-24T01:38:46;0.67;;;0.60;;
11004;SDS011;5555;59.622;16.556;2023-06-24T01:41:17;1.37;;;0.70;;
11004;SDS011;5555;59.622;16.556;2023-06-24T01:43:47;1.33;;;0.70;;
11004;SDS011;5555;59.622;16.556;2023-06-24T01:46:15;1.10;;;0.70;;
11004;SDS011;5555;59.622;16.556;2023-06-24T01:48:46;0.70;;;0.63;;
11004;SDS011;5555;59.622;16.556;2023-06-24T01:51:13;0.87;;;0.70;;
11004;SDS011;5555;59.622;16.556;2023-06-24T01:53:43;2.20;;;0.80;;
11004;SDS011;5555;59.622;16.556;2023-06-24T01:56:14;1.07;;;0.70;;
11004;SDS011;5555;59.622;16.556;2023-06-24T01:58:40;1.00;;;0.50;;
11004;SDS011;5555;59.622;16.556;2023-06-24T02:01:08;1.77;;;0.77;;
11004;SDS011;5555;59.622;16.556;2023-06-24T02:03:35;1.87;;;0.77;;
11004;SDS011;5555;59.622;16.556;2023-06-24T02:06:01;1.20;;;0.90;;
11004;SDS011;5555;59.622;16.556;2023-06-24T02:08:31;1.90;;;0.83;;
11004;SDS011;5555;59.622;16.556;2023-06-24T02:10:58;1.17;;;0.80;;
11004;SDS011;5555;59.622;16.556;2023-06-24T02:13:25;1.13;;;0.80;;
11004;SDS011;5555;59.622;16.556;2023-06-24T02:15:52;1.03;;;0.80;;
11004;SDS011;5555;59.622;16.556;2023-06-24T02:18:19;1.37;;;1.00;;
11004;SDS011;5555;59.622;16.556;2023-06-24T02:20:48;1.37;;;1.00;;
11004;SDS011;5555;59.622;16.556;2023-06-24T02:23:15;1.20;;;0.90;;
11004;SDS011;5555;59.622;16.556;2023-06-24T02:25:42;1.27;;;1.03;;
11004;SDS011;5555;59.622;16.556;2023-06-24T02:28:08;1.23;;;0.90;;
11004;SDS011;5555;59.622;16.556;2023-06-24T02:30:34;1.33;;;1.00;;
11004;SDS011;5555;59.622;16.556;2023-06-24T02:33:03;1.20;;;0.73;;
11004;SDS011;5555;59.622;16.556;2023-06-24T02:35:30;2.23;;;0.90;;
11004;SDS011;5555;59.622;16.556;2023-06-24T02:37:55;1.73;;;1.10;;
11004;SDS011;5555;59.622;16.556;2023-06-24T02:40:21;2.10;;;1.00;;
11004;SDS011;5555;59.622;16.556;2023-06-24T02:42:47;1.00;;;1.00;;
11004;SDS011;5555;59.622;16.556;2023-06-24T02:45:12;1.23;;;1.10;;
11004;SDS011;5555;59.622;16.556;2023-06-24T02:47:40;1.97;;;0.80;;
11004;SDS011;5555;59.622;16.556;2023-06-24T02:50:08;1.17;;;0.97;;
11004;SDS011;5555;59.622;16.556;2023-06-24T02:52:35;1.07;;;0.80;;
11004;SDS011;5555;59.622;16.556;2023-06-24T02:55:02;1.00;;;0.80;;
11004;SDS011;5555;59.622;16.556;2023-06-24T02:57:29;1.23;;;1.00;;
11004;SDS011;5555;59.622;16.556;2023-06-24T02:59:55;2.20;;;1.20;;
11004;SDS011;5555;59.622;16.556;2023-06-24T03:02:21;1.20;;;0.90;;
11004;SDS011;5555;59.622;16.556;2023-06-24T03:04:48;2.93;;;1.20;;
11004;SDS011;5555;59.622;16.556;2023-06-24T03:07:18;2.77;;;1.20;;
11004;SDS011;5555;59.622;16.556;2023-06-24T03:09:47;2.00;;;1.10;;
11004;SDS011;5555;59.622;16.556;2023-06-24T03:12:13;1.57;;;0.93;;
11004;SDS011;5555;59.622;16.556;2023-06-24T03:14:38;1.53;;;0.87;;
11004;SDS011;5555;59.622;16.556;2023-06-24T03:17:04;2.97;;;0.97;;
11004;SDS011;5555;59.622;16.556;2023-06-24T03:19:30;1.50;;;1.00;;
11004;SDS011;5555;59.622;16.556;2023-06-24T03:21:55;1.17;;;1.07;;
11004;SDS011;5555;59.622;16.556;2023-06-24T03:24:21;1.83;;;1.10;;
11004;SDS011;5555;59.622;16.556;2023-06-24T03:26:47;1.23;;;1.13;;
11004;SDS011;5555;59.622;16.556;2023-06-24T03:29:12;2.40;;;1.27;;
11004;SDS011;5555;59.622;16.556;2023-06-24T03:31:38;1.00;;;1.00;;
11004;SDS011;5555;59.622;16.556;2023-06-24T03:34:09;1.10;;;1.00;;
11004;SDS011;5555;59.622;16.556;2023-06-24T03:36:35;1.50;;;1.23;;
11004;SDS011;5555;59.622;16.556;2023-06-24T03:39:03;1.07;;;0.90;;
11004;SDS011;5555;59.622;16.556;2023-06-24T03:41:29;2.03;;;1.20;;
11004;SDS011;5555;59.622;16.556;2023-06-24T03:43:55;1.30;;;0.90;;
11004;SDS011;5555;59.622;16.556;2023-06-24T03:46:20;2.43;;;1.07;;
11004;SDS011;5555;59.622;16.556;2023-06-24T03:48:47;1.00;;;0.90;;
11004;SDS011;5555;59.622;16.556;2023-06-24T03:51:14;1.90;;;1.20;;
11004;SDS011;5555;59.622;16.556;2023-06-24T03:53:40;1.57;;;1.20;;
11004;SDS011;5555;59.622;16.556;2023-06-24T03:56:05;1.23;;;1.00;;
11004;SDS011;5555;59.622;16.556;2023-06-24T03:58:31;2.23;;;1.27;;
11004;SDS011;5555;59.622;16.556;2023-06-24T04:00:58;1.30;;;1.20;;
11004;SDS011;5555;59.622;16.556;2023-06-24T04:03:24;2.07;;;1.10;;
11004;SDS011;5555;59.622;16.556;2023-06-24T04:05:51;1.37;;;1.10;;
11004;SDS011;5555;59.622;16.556;2023-06-24T04:08:20;1.30;;;1.20;;
11004;SDS011;5555;59.622;16.556;2023-06-24T04:10:47;1.37;;;1.23;;
11004;SDS011;5555;59.622;16.556;2023-06-24T04:13:12;1.30;;;1.20;;
11004;SDS011;5555;59.622;16.556;2023-06-24T04:15:38;1.10;;;0.97;;
11004;SDS011;5555;59.622;16.556;2023-06-24T04:18:04;1.67;;;1.00;;
11004;SDS011;5555;59.622;16.556;2023-06-24T04:20:29;2.27;;;1.30;;
11004;SDS011;5555;59.622;16.556;2023-06-24T04:22:55;2.83;;;1.20;;
11004;SDS011;5555;59.622;16.556;2023-06-24T04:25:20;1.03;;;0.90;;
11004;SDS011;5555;59.622;16.556;2023-06-24T04:27:46;1.40;;;1.03;;
11004;SDS011;5555;59.622;16.556;2023-06-24T04:30:12;1.57;;;1.43;;
11004;SDS011;5555;59.622;16.556;2023-06-24T04:32:37;2.57;;;1.10;;
11004;SDS011;5555;59.622;16.556;2023-06-24T04:35:03;1.83;;;1.10;;
11004;SDS011;5555;59.622;16.556;2023-06-24T04:37:29;2.20;;;1.17;;
11004;SDS011;5555;59.622;16.556;2023-06-24T04:39:55;2.93;;;1.40;;
11004;SDS011;5555;59.622;16.556;2023-06-24T04:42:21;1.10;;;0.90;;
11004;SDS011;5555;59.622;16.556;2023-06-24T04:44:48;2.50;;;1.17;;
11004;SDS011;5555;59.622;16.556;2023-06-24T04:47:16;2.43;;;1.20;;
11004;SDS011;5555;59.622;16.556;2023-06-24T04:49:42;1.20;;;0.90;;
11004;SDS011;5555;59.622;16.556;2023-06-24T04:52:08;1.63;;;1.53;;
11004;SDS011;5555;59.622;16.556;2023-06-24T04:54:35;2.13;;;1.37;;
11004;SDS011;5555;59.622;16.556;2023-06-24T04:57:01;2.73;;;1.50;;
11004;SDS011;5555;59.622;16.556;2023-06-24T04:59:26;1.83;;;1.20;;
11004;SDS011;5555;59.622;16.556;2023-06-24T05:01:52;2.13;;;1.20;;
11004;SDS011;5555;59.622;16.556;2023-06-24T05:04:17;2.13;;;1.30;;
11004;SDS011;5555;59.622;16.556;2023-06-24T05:06:43;2.57;;;1.10;;
11004;SDS011;5555;59.622;16.556;2023-06-24T05:09:09;3.30;;;1.60;;
11004;SDS011;5555;59.622;16.556;2023-06-24T05:11:38;2.90;;;1.10;;
11004;SDS011;5555;59.622;16.556;2023-06-24T05:14:04;1.63;;;1.10;;
11004;SDS011;5555;59.622;16.556;2023-06-24T05:16:30;2.23;;;1.20;;
11004;SDS011;5555;59.622;16.556;2023-06-24T05:18:56;2.67;;;1.00;;
11004;SDS011;5555;59.622;16.556;2023-06-24T05:21:22;3.03;;;1.20;;
11004;SDS011;5555;59.622;16.556;2023-06-24T05:23:47;1.53;;;0.90;;
11004;SDS011;5555;59.622;16.556;2023-06-24T05:26:13;3.10;;;1.50;;
11004;SDS011;5555;59.622;16.556;2023-06-24T05:28:39;1.47;;;1.07;;
11004;SDS011;5555;59.622;16.556;2023-06-24T05:31:05;2.60;;;1.30;;
11004;SDS011;5555;59.622;16.556;2023-06-24T05:33:30;2.23;;;1.17;;
11004;SDS011;5555;59.622;16.556;2023-06-24T05:35:56;2.93;;;1.30;;
11004;SDS011;5555;59.622;16.556;2023-06-24T05:38:21;1.80;;;1.10;;
11004;SDS011;5555;59.622;16.556;2023-06-24T05:40:47;1.50;;;1.20;;
11004;SDS011;5555;59.622;16.556;2023-06-24T05:43:13;1.70;;;1.20;;
11004;SDS011;5555;59.622;16.556;2023-06-24T05:45:38;2.17;;;1.30;;
11004;SDS011;5555;59.622;16.556;2023-06-24T05:48:04;3.60;;;1.37;;
11004;SDS011;5555;59.622;16.556;2023-06-24T05:50:30;1.20;;;1.10;;
11004;SDS011;5555;59.622;16.556;2023-06-24T05:52:55;1.40;;;1.30;;
11004;SDS011;5555;59.622;16.556;2023-06-24T05:55:21;1.43;;;1.00;;
11004;SDS011;5555;59.622;16.556;2023-06-24T05:57:46;2.93;;;1.30;;
11004;SDS011;5555;59.622;16.556;2023-06-24T06:00:12;2.83;;;1.50;;
11004;SDS011;5555;59.622;16.556;2023-06-24T06:02:38;2.70;;;1.20;;
11004;SDS011;5555;59.622;16.556;2023-06-24T06:05:04;2.80;;;1.27;;
11004;SDS011;5555;59.622;16.556;2023-06-24T06:07:30;2.60;;;1.50;;
11004;SDS011;5555;59.622;16.556;2023-06-24T06:09:55;1.93;;;0.97;;
11004;SDS011;5555;59.622;16.556;2023-06-24T06:12:21;3.03;;;1.50;;
11004;SDS011;5555;59.622;16.556;2023-06-24T06:14:47;1.50;;;1.20;;
11004;SDS011;5555;59.622;16.556;2023-06-24T06:17:13;1.33;;;1.10;;
11004;SDS011;5555;59.622;16.556;2023-06-24T06:19:39;2.43;;;1.30;;
11004;SDS011;5555;59.622;16.556;2023-06-24T06:22:06;1.87;;;1.30;;
11004;SDS011;5555;59.622;16.556;2023-06-24T06:24:32;3.10;;;1.50;;
11004;SDS011;5555;59.622;16.556;2023-06-24T06:26:58;1.57;;;0.90;;
11004;SDS011;5555;59.622;16.556;2023-06-24T06:29:24;1.27;;;0.90;;
11004;SDS011;5555;59.622;16.556;2023-06-24T06:31:50;1.33;;;1.00;;
11004;SDS011;5555;59.622;16.556;2023-06-24T06:34:17;2.03;;;1.10;;
11004;SDS011;5555;59.622;16.556;2023-06-24T06:36:43;2.73;;;0.90;;
11004;SDS011;5555;59.622;16.556;2023-06-24T06:39:08;1.97;;;0.93;;
11004;SDS011;5555;59.622;16.556;2023-06-24T06:41:34;1.50;;;1.00;;
11004;SDS011;5555;59.622;16.556;2023-06-24T06:44:00;1.53;;;1.00;;
11004;SDS011;5555;59.622;16.556;2023-06-24T06:46:25;1.77;;;0.97;;
11004;SDS011;5555;59.622;16.556;2023-06-24T06:48:51;2.17;;;1.07;;
11004;SDS011;5555;59.622;16.556;2023-06-24T06:51:17;2.00;;;1.07;;
11004;SDS011;5555;59.622;16.556;2023-06-24T06:53:43;2.70;;;1.30;;
11004;SDS011;5555;59.622;16.556;2023-06-24T06:56:16;2.67;;;1.33;;
11004;SDS011;5555;59.622;16.556;2023-06-24T06:58:42;1.93;;;1.10;;
11004;SDS011;5555;59.622;16.556;2023-06-24T07:01:08;1.83;;;1.13;;
11004;SDS011;5555;59.622;16.556;2023-06-24T07:03:33;1.30;;;1.00;;
11004;SDS011;5555;59.622;16.556;2023-06-24T07:05:59;1.90;;;1.10;;
11004;SDS011;5555;59.622;16.556;2023-06-24T07:08:25;1.87;;;0.90;;
11004;SDS011;5555;59.622;16.556;2023-06-24T07:10:50;1.10;;;0.83;;
11004;SDS011;5555;59.622;16.556;2023-06-24T07:13:16;2.00;;;1.30;;
11004;SDS011;5555;59.622;16.556;2023-06-24T07:15:41;1.53;;;0.90;;
11004;SDS011;5555;59.622;16.556;2023-06-24T07:18:07;1.40;;;0.90;;
11004;SDS011;5555;59.622;16.556;2023-06-24T07:20:32;1.43;;;0.90;;
11004;SDS011;5555;59.622;16.556;2023-06-24T07:22:58;1.33;;;0.87;;
11004;SDS011;5555;59.622;16.556;2023-06-24T07:25:24;2.93;;;1.17;;
11004;SDS011;5555;59.622;16.556;2023-06-24T07:27:51;2.60;;;1.20;;
11004;SDS011;5555;59.622;16.556;2023-06-24T07:30:16;2.83;;;1.37;;
11004;SDS011;5555;59.622;16.556;2023-06-24T07:32:42;2.30;;;1.07;;
11004;SDS011;5555;59.622;16.556;2023-06-24T07:35:08;2.23;;;1.30;;
11004;SDS011;5555;59.622;16.556;2023-06-24T07:37:34;3.83;;;1.30;;
11004;SDS011;5555;59.622;16.556;2023-06-24T07:40:00;2.17;;;1.10;;
11004;SDS011;5555;59.622;16.556;2023-06-24T07:42:25;1.00;;;0.80;;
11004;SDS011;5555;59.622;16.556;2023-06-24T07:44:51;2.23;;;1.30;;
11004;SDS011;5555;59.622;16.556;2023-06-24T07:47:17;1.47;;;0.90;;
11004;SDS011;5555;59.622;16.556;2023-06-24T07:49:43;3.50;;;1.13;;
11004;SDS011;5555;59.622;16.556;2023-06-24T07:52:09;1.63;;;1.03;;
11004;SDS011;5555;59.622;16.556;2023-06-24T07:54:35;3.07;;;1.40;;
11004;SDS011;5555;59.622;16.556;2023-06-24T07:57:01;2.13;;;1.33;;
11004;SDS011;5555;59.622;16.556;2023-06-24T07:59:26;2.90;;;1.37;;
11004;SDS011;5555;59.622;16.556;2023-06-24T08:01:52;1.90;;;1.17;;
11004;SDS011;5555;59.622;16.556;2023-06-24T08:04:18;2.03;;;1.27;;
11004;SDS011;5555;59.622;16.556;2023-06-24T08:06:43;2.40;;;1.40;;
11004;SDS011;5555;59.622;16.556;2023-06-24T08:09:09;1.53;;;1.20;;
11004;SDS011;5555;59.622;16.556;2023-06-24T08:11:35;3.23;;;1.80;;
11004;SDS011;5555;59.622;16.556;2023-06-24T08:14:01;1.83;;;1.20;;
11004;SDS011;5555;59.622;16.556;2023-06-24T08:16:27;1.87;;;1.30;;
11004;SDS011;5555;59.622;16.556;2023-06-24T08:18:52;1.50;;;1.13;;
11004;SDS011;5555;59.622;16.556;2023-06-24T08:21:18;2.53;;;1.30;;
11004;SDS011;5555;59.622;16.556;2023-06-24T08:23:45;1.90;;;1.57;;
11004;SDS011;5555;59.622;16.556;2023-06-24T08:26:11;1.60;;;1.40;;
11004;SDS011;5555;59.622;16.556;2023-06-24T08:28:37;3.40;;;1.60;;
11004;SDS011;5555;59.622;16.556;2023-06-24T08:31:02;2.73;;;1.87;;
11004;SDS011;5555;59.622;16.556;2023-06-24T08:33:28;3.10;;;1.30;;
11004;SDS011;5555;59.622;16.556;2023-06-24T08:35:54;2.77;;;1.60;;
11004;SDS011;5555;59.622;16.556;2023-06-24T08:38:19;1.60;;;1.10;;
11004;SDS011;5555;59.622;16.556;2023-06-24T08:40:45;2.87;;;1.40;;
11004;SDS011;5555;59.622;16.556;2023-06-24T08:43:12;3.07;;;1.10;;
11004;SDS011;5555;59.622;16.556;2023-06-24T08:45:38;2.00;;;1.43;;
11004;SDS011;5555;59.622;16.556;2023-06-24T08:48:03;2.50;;;1.37;;
11004;SDS011;5555;59.622;16.556;2023-06-24T08:50:35;2.83;;;1.30;;
11004;SDS011;5555;59.622;16.556;2023-06-24T08:53:05;1.53;;;1.20;;
11004;SDS011;5555;59.622;16.556;2023-06-24T08:55:34;2.07;;;1.70;;
11004;SDS011;5555;59.622;16.556;2023-06-24T08:58:06;2.37;;;1.30;;
11004;SDS011;5555;59.622;16.556;2023-06-24T09:00:32;1.57;;;1.33;;
11004;SDS011;5555;59.622;16.556;2023-06-24T09:02:58;2.73;;;1.43;;
11004;SDS011;5555;59.622;16.556;2023-06-24T09:05:24;3.80;;;1.53;;
11004;SDS011;5555;59.622;16.556;2023-06-24T09:07:50;1.93;;;1.30;;
11004;SDS011;5555;59.622;16.556;2023-06-24T09:10:35;2.97;;;2.00;;
11004;SDS011;5555;59.622;16.556;2023-06-24T09:13:02;3.13;;;2.07;;
11004;SDS011;5555;59.622;16.556;2023-06-24T09:15:32;1.50;;;1.17;;
11004;SDS011;5555;59.622;16.556;2023-06-24T09:17:59;2.53;;;1.33;;
11004;SDS011;5555;59.622;16.556;2023-06-24T09:20:26;1.83;;;1.30;;
11004;SDS011;5555;59.622;16.556;2023-06-24T09:22:59;3.00;;;1.40;;
11004;SDS011;5555;59.622;16.556;2023-06-24T09:25:28;3.00;;;1.40;;
11004;SDS011;5555;59.622;16.556;2023-06-24T09:27:54;1.20;;;1.10;;
11004;SDS011;5555;59.622;16.556;2023-06-24T09:30:23;1.57;;;1.00;;
11004;SDS011;5555;59.622;16.556;2023-06-24T09:32:50;1.27;;;1.03;;
11004;SDS011;5555;59.622;16.556;2023-06-24T09:35:20;1.80;;;0.90;;
11004;SDS011;5555;59.622;16.556;2023-06-24T09:37:53;1.27;;;1.00;;
11004;SDS011;5555;59.622;16.556;2023-06-24T09:40:20;1.57;;;1.30;;
11004;SDS011;5555;59.622;16.556;2023-06-24T09:42:53;1.00;;;0.90;;
11004;SDS011;5555;59.622;16.556;2023-06-24T09:45:27;1.77;;;1.10;;
11004;SDS011;5555;59.622;16.556;2023-06-24T09:47:54;1.10;;;1.00;;
11004;SDS011;5555;59.622;16.556;2023-06-24T09:50:21;2.07;;;1.30;;
11004;SDS011;5555;59.622;16.556;2023-06-24T09:52:48;1.80;;;1.23;;
11004;SDS011;5555;59.622;16.556;2023-06-24T09:55:15;2.63;;;1.33;;
11004;SDS011;5555;59.622;16.556;2023-06-24T09:57:45;1.43;;;1.10;;
11004;SDS011;5555;59.622;16.556;2023-06-24T10:00:15;1.73;;;1.07;;
11004;SDS011;5555;59.622;16.556;2023-06-24T10:02:44;1.10;;;0.93;;
11004;SDS011;5555;59.622;16.556;2023-06-24T10:05:11;2.05;;;1.30;;
11004;SDS011;5555;59.622;16.556;2023-06-24T10:07:38;1.75;;;1.17;;
11004;SDS011;5555;59.622;16.556;2023-06-24T10:10:05;2.58;;;1.67;;
11004;SDS011;5555;59.622;16.556;2023-06-24T10:12:31;1.77;;;1.45;;
11004;SDS011;5555;59.622;16.556;2023-06-24T10:14:59;3.38;;;1.67;;
11004;SDS011;5555;59.622;16.556;2023-06-24T10:17:25;3.08;;;1.60;;
11004;SDS011;5555;59.622;16.556;2023-06-24T10:19:51;2.88;;;1.67;;
11004;SDS011;5555;59.622;16.556;2023-06-24T10:22:21;4.30;;;1.65;;
11004;SDS011;5555;59.622;16.556;2023-06-24T10:24:49;2.30;;;1.73;;
11004;SDS011;5555;59.622;16.556;2023-06-24T10:27:17;3.50;;;1.75;;
11004;SDS011;5555;59.622;16.556;2023-06-24T10:29:47;1.80;;;1.52;;
11004;SDS011;5555;59.622;16.556;2023-06-24T10:32:17;2.75;;;1.85;;
11004;SDS011;5555;59.622;16.556;2023-06-24T10:34:45;4.53;;;2.40;;
11004;SDS011;5555;59.622;16.556;2023-06-24T10:44:47;3.03;;;2.40;;
11004;SDS011;5555;59.622;16.556;2023-06-24T10:47:14;3.42;;;2.10;;
11004;SDS011;5555;59.622;16.556;2023-06-24T10:49:40;2.58;;;1.77;;
11004;SDS011;5555;59.622;16.556;2023-06-24T10:52:09;3.05;;;2.67;;
11004;SDS011;5555;59.622;16.556;2023-06-24T10:54:39;4.20;;;3.40;;
11004;SDS011;5555;59.622;16.556;2023-06-24T10:57:06;2.65;;;2.00;;
11004;SDS011;5555;59.622;16.556;2023-06-24T11:00:06;2.05;;;1.83;;
11004;SDS011;5555;59.622;16.556;2023-06-24T11:02:26;2.25;;;1.88;;
11004;SDS011;5555;59.622;16.556;2023-06-24T11:04:53;2.75;;;1.80;;
11004;SDS011;5555;59.622;16.556;2023-06-24T11:07:24;4.80;;;2.15;;
11004;SDS011;5555;59.622;16.556;2023-06-24T11:09:52;3.20;;;1.70;;
11004;SDS011;5555;59.622;16.556;2023-06-24T11:12:36;2.20;;;1.85;;
11004;SDS011;5555;59.622;16.556;2023-06-24T11:15:03;2.38;;;1.60;;
11004;SDS011;5555;59.622;16.556;2023-06-24T11:17:31;1.63;;;1.33;;
11004;SDS011;5555;59.622;16.556;2023-06-24T11:19:58;2.28;;;1.33;;
11004;SDS011;5555;59.622;16.556;2023-06-24T11:22:24;1.55;;;1.45;;
11004;SDS011;5555;59.622;16.556;2023-06-24T11:24:50;1.95;;;1.40;;
11004;SDS011;5555;59.622;16.556;2023-06-24T11:27:23;1.80;;;1.48;;
11004;SDS011;5555;59.622;16.556;2023-06-24T11:29:51;2.13;;;1.48;;
11004;SDS011;5555;59.622;16.556;2023-06-24T11:32:17;4.15;;;1.83;;
11004;SDS011;5555;59.622;16.556;2023-06-24T11:34:42;2.58;;;1.70;;
11004;SDS011;5555;59.622;16.556;2023-06-24T11:37:09;1.77;;;1.27;;
11004;SDS011;5555;59.622;16.556;2023-06-24T11:39:36;1.48;;;1.23;;
11004;SDS011;5555;59.622;16.556;2023-06-24T11:42:02;4.30;;;1.50;;
11004;SDS011;5555;59.622;16.556;2023-06-24T11:44:27;2.00;;;1.48;;
11004;SDS011;5555;59.622;16.556;2023-06-24T11:47:02;1.52;;;1.40;;
11004;SDS011;5555;59.622;16.556;2023-06-24T11:49:31;2.88;;;1.50;;
11004;SDS011;5555;59.622;16.556;2023-06-24T11:51:57;2.58;;;1.33;;
11004;SDS011;5555;59.622;16.556;2023-06-24T11:54:23;2.88;;;1.45;;
11004;SDS011;5555;59.622;16.556;2023-06-24T11:56:51;1.85;;;1.50;;
11004;SDS011;5555;59.622;16.556;2023-06-24T11:59:21;2.55;;;1.40;;
11004;SDS011;5555;59.622;16.556;2023-06-24T12:01:53;3.42;;;1.73;;
11004;SDS011;5555;59.622;16.556;2023-06-24T12:04:19;1.80;;;1.45;;
11004;SDS011;5555;59.622;16.556;2023-06-24T12:06:45;2.42;;;1.40;;
11004;SDS011;5555;59.622;16.556;2023-06-24T12:09:11;1.45;;;1.20;;
11004;SDS011;5555;59.622;16.556;2023-06-24T12:11:37;4.65;;;1.48;;
11004;SDS011;5555;59.622;16.556;2023-06-24T12:14:04;1.70;;;1.23;;
11004;SDS011;5555;59.622;16.556;2023-06-24T12:16:31;2.03;;;1.42;;
11004;SDS011;5555;59.622;16.556;2023-06-24T12:18:56;2.22;;;1.50;;
11004;SDS011;5555;59.622;16.556;2023-06-24T12:21:22;1.80;;;1.35;;
11004;SDS011;5555;59.622;16.556;2023-06-24T12:23:48;2.22;;;1.50;;
11004;SDS011;5555;59.622;16.556;2023-06-24T12:26:13;4.22;;;1.33;;
11004;SDS011;5555;59.622;16.556;2023-06-24T12:28:40;3.72;;;1.30;;
11004;SDS011;5555;59.622;16.556;2023-06-24T12:31:05;1.90;;;1.20;;
11004;SDS011;5555;59.622;16.556;2023-06-24T12:33:31;1.65;;;1.15;;
11004;SDS011;5555;59.622;16.556;2023-06-24T12:35:56;1.83;;;1.25;;
11004;SDS011;5555;59.622;16.556;2023-06-24T12:38:23;3.10;;;1.25;;
11004;SDS011;5555;59.622;16.556;2023-06-24T12:40:49;1.90;;;1.30;;
11004;SDS011;5555;59.622;16.556;2023-06-24T12:43:14;1.73;;;1.25;;
11004;SDS011;5555;59.622;16.556;2023-06-24T12:45:41;2.28;;;1.30;;
11004;SDS011;5555;59.622;16.556;2023-06-24T12:48:12;1.95;;;1.42;;
11004;SDS011;5555;59.622;16.556;2023-06-24T12:50:38;3.03;;;1.10;;
11004;SDS011;5555;59.622;16.556;2023-06-24T12:53:04;2.42;;;1.20;;
11004;SDS011;5555;59.622;16.556;2023-06-24T12:55:29;2.20;;;1.10;;
11004;SDS011;5555;59.622;16.556;2023-06-24T12:57:55;1.42;;;1.30;;
11004;SDS011;5555;59.622;16.556;2023-06-24T13:00:21;1.40;;;1.20;;
11004;SDS011;5555;59.622;16.556;2023-06-24T13:02:48;1.10;;;1.00;;
11004;SDS011;5555;59.622;16.556;2023-06-24T13:05:15;1.35;;;1.00;;
11004;SDS011;5555;59.622;16.556;2023-06-24T13:07:40;2.08;;;1.02;;
11004;SDS011;5555;59.622;16.556;2023-06-24T13:10:06;1.73;;;1.45;;
11004;SDS011;5555;59.622;16.556;2023-06-24T13:12:32;1.45;;;1.10;;
11004;SDS011;5555;59.622;16.556;2023-06-24T13:14:59;1.45;;;0.90;;
11004;SDS011;5555;59.622;16.556;2023-06-24T13:17:24;1.10;;;1.00;;
11004;SDS011;5555;59.622;16.556;2023-06-24T13:19:50;1.20;;;1.10;;
11004;SDS011;5555;59.622;16.556;2023-06-24T13:22:17;1.38;;;1.08;;
11004;SDS011;5555;59.622;16.556;2023-06-24T13:24:43;3.13;;;1.23;;
11004;SDS011;5555;59.622;16.556;2023-06-24T13:27:09;2.00;;;1.10;;
11004;SDS011;5555;59.622;16.556;2023-06-24T13:29:35;1.45;;;1.08;;
11004;SDS011;5555;59.622;16.556;2023-06-24T13:32:01;2.55;;;1.00;;
11004;SDS011;5555;59.622;16.556;2023-06-24T13:34:26;1.30;;;1.17;;
11004;SDS011;5555;59.622;16.556;2023-06-24T13:36:52;0.95;;;0.95;;
11004;SDS011;5555;59.622;16.556;2023-06-24T13:39:18;1.83;;;1.05;;
11004;SDS011;5555;59.622;16.556;2023-06-24T13:41:46;1.88;;;1.20;;
11004;SDS011;5555;59.622;16.556;2023-06-24T13:44:12;1.00;;;0.90;;
11004;SDS011;5555;59.622;16.556;2023-06-24T13:46:38;1.05;;;0.95;;
11004;SDS011;5555;59.622;16.556;2023-06-24T13:49:03;1.10;;;0.80;;
11004;SDS011;5555;59.622;16.556;2023-06-24T13:51:29;2.53;;;1.10;;
11004;SDS011;5555;59.622;16.556;2023-06-24T13:53:55;1.35;;;1.05;;
11004;SDS011;5555;59.622;16.556;2023-06-24T13:56:22;1.30;;;0.77;;
11004;SDS011;5555;59.622;16.556;2023-06-24T13:58:49;1.30;;;1.15;;
11004;SDS011;5555;59.622;16.556;2023-06-24T14:01:16;3.03;;;0.90;;
11004;SDS011;5555;59.622;16.556;2023-06-24T14:03:42;1.40;;;1.02;;
11004;SDS011;5555;59.622;16.556;2023-06-24T14:06:08;3.53;;;1.13;;
11004;SDS011;5555;59.622;16.556;2023-06-24T14:08:34;1.40;;;1.20;;
11004;SDS011;5555;59.622;16.556;2023-06-24T14:11:01;1.45;;;0.90;;
11004;SDS011;5555;59.622;16.556;2023-06-24T14:13:27;1.70;;;1.23;;
11004;SDS011;5555;59.622;16.556;2023-06-24T14:15:53;1.13;;;0.93;;
11004;SDS011;5555;59.622;16.556;2023-06-24T14:18:20;1.30;;;1.20;;
11004;SDS011;5555;59.622;16.556;2023-06-24T14:20:46;1.58;;;1.38;;
11004;SDS011;5555;59.622;16.556;2023-06-24T14:23:12;1.48;;;1.38;;
11004;SDS011;5555;59.622;16.556;2023-06-24T14:25:37;2.38;;;1.60;;
11004;SDS011;5555;59.622;16.556;2023-06-24T14:28:04;1.20;;;1.10;;
11004;SDS011;5555;59.622;16.556;2023-06-24T14:30:30;3.03;;;1.25;;
11004;SDS011;5555;59.622;16.556;2023-06-24T14:32:56;1.90;;;0.98;;
11004;SDS011;5555;59.622;16.556;2023-06-24T14:35:22;1.90;;;0.90;;
11004;SDS011;5555;59.622;16.556;2023-06-24T14:37:48;0.90;;;0.85;;
11004;SDS011;5555;59.622;16.556;2023-06-24T14:40:13;1.63;;;1.10;;
11004;SDS011;5555;59.622;16.556;2023-06-24T14:42:39;1.20;;;1.08;;
11004;SDS011;5555;59.622;16.556;2023-06-24T14:45:05;1.10;;;1.00;;
11004;SDS011;5555;59.622;16.556;2023-06-24T14:47:31;1.20;;;1.08;;
11004;SDS011;5555;59.622;16.556;2023-06-24T14:49:57;1.15;;;0.80;;
11004;SDS011;5555;59.622;16.556;2023-06-24T14:52:22;0.98;;;0.88;;
11004;SDS011;5555;59.622;16.556;2023-06-24T14:54:48;1.00;;;0.90;;
11004;SDS011;5555;59.622;16.556;2023-06-24T14:57:14;1.20;;;0.98;;
11004;SDS011;5555;59.622;16.556;2023-06-24T14:59:43;0.90;;;0.88;;
11004;SDS011;5555;59.622;16.556;2023-06-24T15:02:08;1.35;;;0.93;;
11004;SDS011;5555;59.622;16.556;2023-06-24T15:04:37;1.25;;;1.02;;